Terminal Aerodrome Forecast
Issued by NWS

Home | Current Version | Previous Version | Text Only | Print | Product List | Glossary On
Versions: 1 2 3 4 5 6 7 8 9 10 11 12
654
FTUS44 KEPZ 232326
TAFDMN
TAF
KDMN 232326Z 2400/2424 33011KT P6SM VCTS SCT050CB BKN100 BKN200
      TEMPO 2400/2402 VRB25G35KT 1SM +TSRA BKN015CB BKN050 OVC200
     FM240400 08011KT 5SM -TSRA BKN040CB OVC100
      TEMPO 2404/2408 VRB25G35KT 2SM TSRA BR BKN010 BKN030CB OVC060
     FM240800 06008KT P6SM BKN012 OVC030
     FM242000 13008KT P6SM BKN040 BKN060=

USA.gov is the U.S. government's official web portal to all federal, state and local government web resources and services.